EDDNEDQM

Guest
Details From EDDN - Nurnberg
To EDQM - Hof Plauen
Flight Number -
Tags decoded
Created
Modified
Stats Distance 63 nm / 116 km
Max Altitude 0 ft / 0 m
Waypoints 6
Social Downloads 1
Likes 0
Share VATSIM

Download

Looking for another format? Having issues loading an existing format? Contact us
Advertisement - Login to hide

Notes

Requested: EDDN BABAV ERETO KULOK HOF EDQM

Route

EDDN BABAV ERETO KULOK HOF EDQM

ID Type Via Altitude Latitude Longitude Leg Dist Tot Dist Heading (true) Name
O EDDN APT - 0 ft / 0 m 49.49874˚ 11.07758˚ - 0 nm - Nurnberg
BABAV FIX - 0 ft / 0 m 49.83917˚ 11.11139˚ 20 nm 20 nm 4° / 4° -
ERETO FIX - 0 ft / 0 m 49.93111˚ 11.40833˚ 12 nm 33 nm 64° / 64° -
KULOK FIX - 0 ft / 0 m 50.07278˚ 11.63056˚ 12 nm 45 nm 45° / 45° -
HOF NDB - 0 ft / 0 m 50.28463˚ 11.76139˚ 13 nm 58 nm 22° / 22° HOF NDB
O EDQM APT - 0 ft / 0 m 50.28864˚ 11.85406˚ 3 nm 62 nm 86° / 86° Hof Plauen

Altitude Profile

Advertisement - Login to hide

EDDN

Details ICAO EDDN (NUE)
Name Nurnberg
Region Germany - Civil
Timezone Europe/Berlin (UTC+1.0)
Stats Elevation 1,045 ft / 319 m (AMSL)
Location 49.498744° 11.077580°
Runways 1
Magnetic Variation 3.020° E

METAR

EDDN 181850Z 04003KT 320V100 9999 SCT034 M01/M03 Q1027 NOSIG

Decode

TAF

TAF EDDN 181700Z 1818/1918 11005KT 9999 BKN025 BECMG 1908/1910 27005KT TEMPO 1916/1918 3500 -SN BKN012

Decode

Departure Runways

ID Width Length Bearing (true) Bearing (mag) Surface Threshold Offset Overrun Length
10 148 ft / 45 m 8,819 ft / 2,688 m 98.60° 95.58° Asphalt 0 ft / 0 m 0 ft / 0 m
28 148 ft / 45 m 8,819 ft / 2,688 m 278.63° 275.61° Asphalt 0 ft / 0 m 0 ft / 0 m

EDQM

Details ICAO EDQM (HOQ)
Name Hof Plauen
Region Germany - Civil
Timezone Europe/Berlin (UTC+1.0)
Stats Elevation 1,960 ft / 597 m (AMSL)
Location 50.288643° 11.854065°
Runways 1
Magnetic Variation 3.248° E

METAR

EDQM 181850Z 31001KT 9999 BCFG FEW015 M05/M06 Q1026

Decode

TAF

Not found

Destination Runways

ID Width Length Bearing (true) Bearing (mag) Surface Threshold Offset Overrun Length
09 98 ft / 30 m 4,842 ft / 1,476 m 86.76° 83.51° Asphalt 788 ft / 240 m 0 ft / 0 m
27 98 ft / 30 m 4,842 ft / 1,476 m 266.78° 263.53° Asphalt 197 ft / 60 m 0 ft / 0 m

Approach Navaids

Runway Type Ident Frequency Range Bearing (true) Bearing (mag) Slope Elevation
09 Localiser IHOE 110.70 MHz 18 nm / 33 km 86.79° 83.54° - 1,897 ft / 578 m (AMSL)
09 DME IHOE 110.70 MHz 18 nm / 33 km - - - 1,946 ft / 593 m (AMSL)
27 Localiser IHOW 110.70 MHz 18 nm / 33 km 266.77° 263.52° - 1,958 ft / 597 m (AMSL)
27 Glidescope IHOW 110.70 MHz 10 nm / 19 km 266.77° 263.52° 3.50° 1,897 ft / 578 m (AMSL)

Popular Alternatives